createdAt,value
2022-08-02T00:00:04.641Z,1004.71
2022-08-02T00:01:09.138Z,1004.68
2022-08-02T00:02:13.741Z,1004.70
2022-08-02T00:03:17.949Z,1004.70
2022-08-02T00:04:22.365Z,1004.69
2022-08-02T00:05:26.774Z,1004.69
2022-08-02T00:06:31.199Z,1004.68
2022-08-02T00:07:40.876Z,1004.67
2022-08-02T00:08:40.067Z,1004.65
2022-08-02T00:09:44.485Z,1004.65
2022-08-02T00:10:48.894Z,1004.64
2022-08-02T00:11:53.316Z,1004.64
2022-08-02T00:12:57.725Z,1004.62
2022-08-02T00:14:02.156Z,1004.61
2022-08-02T00:15:06.585Z,1004.61
2022-08-02T00:16:11.009Z,1004.55
2022-08-02T00:17:15.419Z,1004.53
2022-08-02T00:18:19.869Z,1004.52
2022-08-02T00:19:24.281Z,1004.51
2022-08-02T00:20:28.696Z,1004.54
2022-08-02T00:21:33.105Z,1004.53
2022-08-02T00:22:37.530Z,1004.52
2022-08-02T00:24:03.340Z,1004.54
2022-08-02T00:24:46.387Z,1004.52
2022-08-02T00:25:55.503Z,1004.56
2022-08-02T00:26:55.215Z,1004.52
2022-08-02T00:27:59.635Z,1004.54
2022-08-02T00:29:04.069Z,1004.56
2022-08-02T00:30:08.495Z,1004.57
2022-08-02T00:31:12.918Z,1004.60
2022-08-02T00:32:17.349Z,1004.62
2022-08-02T00:34:27.403Z,1004.62
2022-08-02T00:34:30.455Z,1004.62
2022-08-02T00:35:30.639Z,1004.66
2022-08-02T00:36:35.057Z,1004.69
2022-08-02T00:37:39.484Z,1004.71
2022-08-02T00:38:43.959Z,1004.77
2022-08-02T00:39:48.359Z,1004.77
2022-08-02T00:40:57.813Z,1004.77
2022-08-02T00:41:57.190Z,1004.76
2022-08-02T00:43:01.610Z,1004.79
2022-08-02T00:44:06.070Z,1004.82
2022-08-02T00:45:10.490Z,1004.76
2022-08-02T00:46:14.912Z,1004.76
2022-08-02T00:47:19.930Z,1004.77
2022-08-02T00:48:23.742Z,1004.74
2022-08-02T00:49:28.259Z,1004.75
2022-08-02T00:50:32.623Z,1004.76
2022-08-02T00:51:37.022Z,1004.73
2022-08-02T00:52:41.450Z,1004.72
2022-08-02T00:53:45.873Z,1004.74
2022-08-02T00:54:50.321Z,1004.69
2022-08-02T00:55:54.742Z,1004.68
2022-08-02T00:56:59.171Z,1004.67
2022-08-02T00:58:03.601Z,1004.68
2022-08-02T00:59:08.005Z,1004.63
2022-08-02T01:00:12.451Z,1004.65
2022-08-02T01:01:16.920Z,1004.64
2022-08-02T01:02:21.415Z,1004.67
2022-08-02T01:03:25.732Z,1004.63
2022-08-02T01:04:32.247Z,1004.63
2022-08-02T01:05:55.871Z,1004.61
2022-08-02T01:06:38.991Z,1004.60
2022-08-02T01:07:43.394Z,1004.61
2022-08-02T01:08:47.834Z,1004.61
2022-08-02T01:09:52.276Z,1004.64
2022-08-02T01:10:56.693Z,1004.62
2022-08-02T01:12:02.691Z,1004.61
2022-08-02T01:13:05.533Z,1004.62
2022-08-02T01:14:09.953Z,1004.61
2022-08-02T01:15:14.394Z,1004.65
2022-08-02T01:16:18.809Z,1004.60
2022-08-02T01:17:23.234Z,1004.59
2022-08-02T01:18:27.649Z,1004.56
2022-08-02T01:19:32.088Z,1004.61
2022-08-02T01:20:36.497Z,1004.58
2022-08-02T01:21:40.908Z,1004.58
2022-08-02T01:23:00.987Z,1004.62
2022-08-02T01:23:49.743Z,1004.61
2022-08-02T01:24:54.186Z,1004.57
2022-08-02T01:25:58.607Z,1004.59
2022-08-02T01:27:03.048Z,1004.59
2022-08-02T01:28:07.468Z,1004.61
2022-08-02T01:29:11.879Z,1004.60
2022-08-02T01:30:16.327Z,1004.62
2022-08-02T01:31:20.770Z,1004.67
2022-08-02T01:32:25.220Z,1004.64
2022-08-02T01:33:29.598Z,1004.69
2022-08-02T01:34:34.017Z,1004.70
2022-08-02T01:35:47.210Z,1004.72
2022-08-02T01:36:42.888Z,1004.72
2022-08-02T01:37:47.308Z,1004.73
2022-08-02T01:38:51.719Z,1004.71
2022-08-02T01:39:56.160Z,1004.73
2022-08-02T01:41:00.603Z,1004.66
2022-08-02T01:42:05.009Z,1004.65
2022-08-02T01:43:09.429Z,1004.62
2022-08-02T01:44:13.883Z,1004.62
2022-08-02T01:45:18.333Z,1004.63
2022-08-02T01:46:22.752Z,1004.64
2022-08-02T01:47:27.171Z,1004.60
2022-08-02T01:48:31.587Z,1004.62
2022-08-02T01:49:36.062Z,1004.58
2022-08-02T01:50:40.441Z,1004.59
2022-08-02T01:51:44.859Z,1004.58
2022-08-02T01:52:53.862Z,1004.56
2022-08-02T01:53:53.700Z,1004.59
2022-08-02T01:54:58.130Z,1004.59
2022-08-02T01:56:02.580Z,1004.55
2022-08-02T01:57:07.010Z,1004.62
2022-08-02T01:58:11.426Z,1004.59
2022-08-02T01:59:15.851Z,1004.58
2022-08-02T02:00:20.298Z,1004.61
2022-08-02T02:01:24.781Z,1004.59
2022-08-02T02:02:31.794Z,1004.58
2022-08-02T02:03:33.834Z,1004.57
2022-08-02T02:04:37.970Z,1004.53
2022-08-02T02:05:42.454Z,1004.57
2022-08-02T02:06:46.841Z,1004.55
2022-08-02T02:07:51.288Z,1004.55
2022-08-02T02:08:55.711Z,1004.52
2022-08-02T02:10:00.170Z,1004.50
2022-08-02T02:12:05.800Z,1004.49
2022-08-02T02:12:13.424Z,1004.50
2022-08-02T02:13:13.553Z,1004.49
2022-08-02T02:14:17.973Z,1004.48
2022-08-02T02:15:22.410Z,1004.43
2022-08-02T02:16:26.823Z,1004.43
2022-08-02T02:17:50.702Z,1004.41
2022-08-02T02:18:35.665Z,1004.39
2022-08-02T02:19:40.101Z,1004.42
2022-08-02T02:20:44.523Z,1004.39
2022-08-02T02:21:48.944Z,1004.39
2022-08-02T02:22:53.351Z,1004.36
2022-08-02T02:23:57.816Z,1004.36
2022-08-02T02:25:02.193Z,1004.37
2022-08-02T02:26:06.646Z,1004.37
2022-08-02T02:27:11.058Z,1004.38
2022-08-02T02:28:15.485Z,1004.37
2022-08-02T02:29:19.926Z,1004.38
2022-08-02T02:30:24.342Z,1004.34
2022-08-02T02:31:28.786Z,1004.34
2022-08-02T02:32:33.205Z,1004.30
2022-08-02T02:33:37.618Z,1004.27
2022-08-02T02:34:42.036Z,1004.28
2022-08-02T02:35:46.489Z,1004.27
2022-08-02T02:36:50.905Z,1004.26
2022-08-02T02:37:55.323Z,1004.27
2022-08-02T02:38:59.755Z,1004.23
2022-08-02T02:40:04.177Z,1004.20
2022-08-02T02:41:08.961Z,1004.18
2022-08-02T02:42:13.865Z,1004.17
2022-08-02T02:43:17.787Z,1004.14
2022-08-02T02:44:22.222Z,1004.13
2022-08-02T02:45:26.629Z,1004.11
2022-08-02T02:46:31.080Z,1004.12
2022-08-02T02:47:41.405Z,1004.14
2022-08-02T02:48:39.908Z,1004.11
2022-08-02T02:49:44.337Z,1004.12
2022-08-02T02:50:48.759Z,1004.15
2022-08-02T02:51:53.207Z,1004.16
2022-08-02T02:52:57.657Z,1004.16
2022-08-02T02:54:32.169Z,1004.15
2022-08-02T02:55:06.498Z,1004.09
2022-08-02T02:56:10.942Z,1004.06
2022-08-02T02:57:15.359Z,1004.11
2022-08-02T02:58:19.780Z,1004.10
2022-08-02T02:59:24.189Z,1004.10
2022-08-02T03:00:28.610Z,1004.08
2022-08-02T03:01:55.140Z,1004.08
2022-08-02T03:02:37.459Z,1004.06
2022-08-02T03:03:41.888Z,1004.07
2022-08-02T03:04:57.390Z,1004.05
2022-08-02T03:05:50.714Z,1004.05
2022-08-02T03:06:55.150Z,1004.04
2022-08-02T03:07:59.571Z,1004.05
2022-08-02T03:09:03.994Z,1004.07
2022-08-02T03:10:08.412Z,1004.02
2022-08-02T03:11:12.922Z,1004.02
2022-08-02T03:12:20.029Z,1004.01
2022-08-02T03:13:21.780Z,1004.03
2022-08-02T03:14:26.204Z,1004.01
2022-08-02T03:15:30.613Z,1004.02
2022-08-02T03:16:35.051Z,1004.05
2022-08-02T03:17:39.459Z,1004.06
2022-08-02T03:18:43.874Z,1004.09
2022-08-02T03:19:48.293Z,1004.12
2022-08-02T03:20:52.713Z,1004.11
2022-08-02T03:21:57.705Z,1004.12
2022-08-02T03:23:01.563Z,1004.10
2022-08-02T03:24:05.991Z,1004.12
2022-08-02T03:25:10.415Z,1004.10
2022-08-02T03:26:14.843Z,1004.14
2022-08-02T03:27:19.288Z,1004.17
2022-08-02T03:28:23.701Z,1004.15
2022-08-02T03:29:30.431Z,1004.14
2022-08-02T03:30:32.534Z,1004.18
2022-08-02T03:31:36.975Z,1004.18
2022-08-02T03:32:41.395Z,1004.21
2022-08-02T03:33:45.821Z,1004.19
2022-08-02T03:34:50.239Z,1004.19
2022-08-02T03:35:54.660Z,1004.22
2022-08-02T03:36:59.104Z,1004.23
2022-08-02T03:38:03.524Z,1004.27
2022-08-02T03:39:08.016Z,1004.29
2022-08-02T03:40:12.441Z,1004.30
2022-08-02T03:41:16.867Z,1004.28
2022-08-02T03:42:21.328Z,1004.25
2022-08-02T03:43:28.658Z,1004.29
2022-08-02T03:44:30.158Z,1004.27
2022-08-02T03:45:34.631Z,1004.28
2022-08-02T03:46:39.027Z,1004.23
2022-08-02T03:47:43.470Z,1004.24
2022-08-02T03:48:47.898Z,1004.23
2022-08-02T03:49:52.316Z,1004.16
2022-08-02T03:50:56.751Z,1004.15
2022-08-02T03:52:01.196Z,1004.10
2022-08-02T03:53:05.621Z,1004.08
2022-08-02T03:54:10.032Z,1004.05
2022-08-02T03:55:14.457Z,1004.07
2022-08-02T03:56:18.867Z,1004.06
2022-08-02T03:57:23.410Z,1004.06
2022-08-02T03:58:27.789Z,1004.04
2022-08-02T03:59:32.592Z,1004.03
2022-08-02T04:00:36.685Z,1003.98
2022-08-02T04:01:41.049Z,1003.94
2022-08-02T04:02:45.493Z,1004.00
2022-08-02T04:03:49.910Z,1004.02
2022-08-02T04:04:54.326Z,1003.98
2022-08-02T04:05:59.232Z,1004.03
2022-08-02T04:07:03.171Z,1004.04
2022-08-02T04:08:36.881Z,1004.07
2022-08-02T04:09:12.001Z,1004.08
2022-08-02T04:10:16.420Z,1004.12
2022-08-02T04:11:20.860Z,1004.08
2022-08-02T04:12:25.281Z,1004.10
2022-08-02T04:13:31.838Z,1004.04
2022-08-02T04:14:36.418Z,1004.08
2022-08-02T04:15:38.533Z,1004.08
2022-08-02T04:16:42.949Z,1004.12
2022-08-02T04:17:47.380Z,1004.16
2022-08-02T04:18:51.782Z,1004.16
2022-08-02T04:19:56.202Z,1004.17
2022-08-02T04:21:00.611Z,1004.15
2022-08-02T04:22:05.052Z,1004.15
2022-08-02T04:23:09.462Z,1004.16
2022-08-02T04:24:13.882Z,1004.18
2022-08-02T04:25:18.313Z,1004.19
2022-08-02T04:26:26.854Z,1004.22
2022-08-02T04:27:50.682Z,1004.22
2022-08-02T04:28:31.582Z,1004.26
2022-08-02T04:29:35.993Z,1004.24
2022-08-02T04:30:40.416Z,1004.30
2022-08-02T04:31:44.857Z,1004.30
2022-08-02T04:32:49.273Z,1004.33
2022-08-02T04:33:53.702Z,1004.31
2022-08-02T04:36:02.544Z,1004.26
2022-08-02T04:37:06.985Z,1004.28
2022-08-02T04:38:11.417Z,1004.28
2022-08-02T04:39:15.833Z,1004.27
2022-08-02T04:40:20.255Z,1004.26
2022-08-02T04:41:24.678Z,1004.24
2022-08-02T04:42:29.115Z,1004.29
2022-08-02T04:43:33.576Z,1004.32
2022-08-02T04:59:56.945Z,1004.32
2022-08-02T05:01:01.423Z,1004.33
2022-08-02T05:02:05.816Z,1004.36
2022-08-02T05:03:10.254Z,1004.33
2022-08-02T05:04:14.663Z,1004.36
2022-08-02T05:05:19.081Z,1004.33
2022-08-02T05:06:23.505Z,1004.35
2022-08-02T05:07:27.946Z,1004.37
2022-08-02T05:08:32.338Z,1004.39
2022-08-02T05:09:36.744Z,1004.35
2022-08-02T05:10:41.135Z,1004.32
2022-08-02T05:11:45.535Z,1004.31
2022-08-02T05:12:49.955Z,1004.27
2022-08-02T05:13:59.312Z,1004.26
2022-08-02T05:14:58.755Z,1004.27
2022-08-02T05:16:03.169Z,1004.27
2022-08-02T05:17:07.564Z,1004.23
2022-08-02T05:18:11.977Z,1004.26
2022-08-02T05:19:16.370Z,1004.27
2022-08-02T05:20:20.775Z,1004.32
2022-08-02T05:21:25.169Z,1004.33
2022-08-02T05:22:29.601Z,1004.31
2022-08-02T05:23:33.989Z,1004.35
2022-08-02T05:24:38.389Z,1004.29
2022-08-02T05:25:42.778Z,1004.32
2022-08-02T05:26:47.182Z,1004.31
2022-08-02T05:27:51.599Z,1004.33
2022-08-02T05:28:55.999Z,1004.37
2022-08-02T05:30:00.410Z,1004.35
2022-08-02T05:31:04.789Z,1004.33
2022-08-02T05:32:09.628Z,1004.34
2022-08-02T05:33:13.628Z,1004.32
2022-08-02T05:34:18.020Z,1004.30
2022-08-02T05:35:22.417Z,1004.28
2022-08-02T05:36:26.800Z,1004.25
2022-08-02T05:37:32.238Z,1004.23
2022-08-02T05:38:37.304Z,1004.22
2022-08-02T05:39:55.549Z,1004.27
2022-08-02T05:40:54.654Z,1004.23
2022-08-02T05:41:48.841Z,1004.22
2022-08-02T05:42:53.252Z,1004.23
2022-08-02T05:43:57.641Z,1004.19
2022-08-02T05:45:02.040Z,1004.22
2022-08-02T05:46:06.451Z,1004.21
2022-08-02T05:47:10.841Z,1004.28
2022-08-02T05:48:15.251Z,1004.30
2022-08-02T05:49:19.716Z,1004.30
2022-08-02T05:50:24.488Z,1004.31
2022-08-02T05:51:28.467Z,1004.32
2022-08-02T05:52:32.872Z,1004.33
2022-08-02T05:53:37.290Z,1004.34
2022-08-02T05:54:41.682Z,1004.36
2022-08-02T05:55:46.079Z,1004.32
2022-08-02T05:56:50.476Z,1004.33
2022-08-02T05:57:54.899Z,1004.31
2022-08-02T05:58:59.302Z,1004.33
2022-08-02T06:00:03.694Z,1004.32
2022-08-02T06:01:08.077Z,1004.31
2022-08-02T06:02:12.922Z,1004.32
2022-08-02T06:03:16.947Z,1004.33
2022-08-02T06:04:21.263Z,1004.37
2022-08-02T06:05:25.655Z,1004.34
2022-08-02T06:06:30.033Z,1004.32
2022-08-02T06:07:34.437Z,1004.36
2022-08-02T06:08:38.850Z,1004.32
2022-08-02T06:09:43.239Z,1004.28
2022-08-02T06:10:47.614Z,1004.24
2022-08-02T06:12:01.833Z,1004.26
2022-08-02T06:12:56.397Z,1004.23
2022-08-02T06:14:00.824Z,1004.24
2022-08-02T06:15:05.214Z,1004.20
2022-08-02T06:16:14.106Z,1004.20
2022-08-02T06:17:13.984Z,1004.24
2022-08-02T06:18:18.396Z,1004.24
2022-08-02T06:19:22.794Z,1004.26
2022-08-02T06:20:27.255Z,1004.25
2022-08-02T06:22:32.746Z,1004.25
2022-08-02T06:22:37.216Z,1004.28
2022-08-02T06:23:40.367Z,1004.28
2022-08-02T06:24:44.756Z,1004.26
2022-08-02T06:25:50.830Z,1004.32
2022-08-02T06:26:53.526Z,1004.25
2022-08-02T06:27:57.917Z,1004.25
2022-08-02T06:29:03.308Z,1004.27
2022-08-02T06:30:06.708Z,1004.25
2022-08-02T06:31:11.107Z,1004.26
2022-08-02T06:32:15.793Z,1004.28
2022-08-02T06:33:19.898Z,1004.34
2022-08-02T06:34:24.310Z,1004.32
2022-08-02T06:35:28.689Z,1004.36
2022-08-02T06:36:33.059Z,1004.34
2022-08-02T06:37:37.458Z,1004.33
2022-08-02T06:38:41.848Z,1004.30
2022-08-02T06:39:46.250Z,1004.23
2022-08-02T06:40:50.634Z,1004.25
2022-08-02T06:41:55.016Z,1004.25
2022-08-02T06:42:59.396Z,1004.25
2022-08-02T06:44:25.274Z,1004.23
2022-08-02T06:45:08.188Z,1004.26
2022-08-02T06:46:38.076Z,1004.27
2022-08-02T06:47:16.962Z,1004.21
2022-08-02T06:48:21.340Z,1004.21
2022-08-02T06:49:25.840Z,1004.17
2022-08-02T06:50:30.171Z,1004.17
2022-08-02T06:51:34.550Z,1004.14
2022-08-02T06:52:38.960Z,1004.10
2022-08-02T06:53:43.340Z,1004.12
2022-08-02T06:54:47.751Z,1004.12
2022-08-02T06:55:52.123Z,1004.11
2022-08-02T06:56:56.515Z,1004.11
2022-08-02T06:58:00.893Z,1004.09
2022-08-02T06:59:06.251Z,1004.11
2022-08-02T07:00:09.684Z,1004.09
2022-08-02T07:01:14.140Z,1004.06
2022-08-02T07:02:18.482Z,1004.07
2022-08-02T07:03:22.873Z,1004.04
2022-08-02T07:04:27.284Z,1004.04
2022-08-02T07:05:31.667Z,1004.00
2022-08-02T07:06:36.053Z,1004.02
2022-08-02T07:07:40.433Z,1004.01
2022-08-02T07:08:59.424Z,1004.07
2022-08-02T07:09:56.363Z,1004.05
2022-08-02T07:10:53.613Z,1004.04
2022-08-02T07:11:57.992Z,1004.13
2022-08-02T07:13:02.374Z,1004.14
2022-08-02T07:14:06.744Z,1004.16
2022-08-02T07:15:11.163Z,1004.15
2022-08-02T07:16:15.553Z,1004.11
2022-08-02T07:17:19.954Z,1004.07
2022-08-02T07:18:24.325Z,1004.04
2022-08-02T07:19:33.714Z,1004.04
2022-08-02T07:20:33.132Z,1004.02
2022-08-02T07:21:55.952Z,1004.00
2022-08-02T07:22:41.900Z,1004.06
2022-08-02T07:23:46.282Z,1004.04
2022-08-02T07:24:50.685Z,1004.04
2022-08-02T07:26:02.868Z,1003.98
2022-08-02T07:27:11.281Z,1003.97
2022-08-02T07:28:03.844Z,1003.97
2022-08-02T07:29:08.227Z,1003.93
2022-08-02T07:30:12.649Z,1003.90
2022-08-02T07:31:17.026Z,1003.89
2022-08-02T07:32:21.440Z,1003.87
2022-08-02T07:33:37.020Z,1003.85
2022-08-02T07:34:30.246Z,1003.82
2022-08-02T07:35:34.625Z,1003.80
2022-08-02T07:36:39.011Z,1003.82
2022-08-02T07:37:55.660Z,1003.84
2022-08-02T07:38:47.784Z,1003.85
2022-08-02T07:39:52.210Z,1003.84
2022-08-02T07:40:56.578Z,1003.85
2022-08-02T07:42:00.949Z,1003.83
2022-08-02T07:43:05.338Z,1003.83
2022-08-02T07:44:09.709Z,1003.83
2022-08-02T07:45:14.125Z,1003.82
2022-08-02T07:46:18.513Z,1003.88
2022-08-02T07:47:22.890Z,1003.86
2022-08-02T07:48:27.296Z,1003.84
2022-08-02T07:49:31.745Z,1003.88
2022-08-02T07:50:36.078Z,1003.84
2022-08-02T07:51:40.473Z,1003.84
2022-08-02T07:52:44.858Z,1003.91
2022-08-02T07:53:50.711Z,1003.92
2022-08-02T07:54:53.612Z,1003.92
2022-08-02T07:55:58.030Z,1003.93
2022-08-02T07:57:02.407Z,1003.92
2022-08-02T07:58:06.791Z,1003.86
2022-08-02T07:59:11.171Z,1003.81
2022-08-02T08:00:15.580Z,1003.79
2022-08-02T08:01:20.017Z,1003.75
2022-08-02T08:02:24.351Z,1003.79
2022-08-02T08:03:28.739Z,1003.77
2022-08-02T08:04:33.123Z,1003.80
2022-08-02T08:05:37.537Z,1003.84
2022-08-02T08:06:41.926Z,1003.82
2022-08-02T08:07:46.310Z,1003.84
2022-08-02T08:08:50.692Z,1003.84
2022-08-02T08:09:56.577Z,1003.82
2022-08-02T08:10:59.501Z,1003.81
2022-08-02T08:12:03.891Z,1003.80
2022-08-02T08:13:08.279Z,1003.77
2022-08-02T08:14:16.613Z,1003.71
2022-08-02T08:15:17.409Z,1003.76
2022-08-02T08:16:21.823Z,1003.72
2022-08-02T08:17:26.193Z,1003.69
2022-08-02T08:18:30.584Z,1003.69
2022-08-02T08:19:51.365Z,1003.72
2022-08-02T08:20:39.375Z,1003.70
2022-08-02T08:21:43.853Z,1003.68
2022-08-02T08:22:48.525Z,1003.71
2022-08-02T08:23:52.934Z,1003.69
2022-08-02T08:24:57.327Z,1003.66
2022-08-02T08:26:02.004Z,1003.64
2022-08-02T08:27:06.452Z,1003.67
2022-08-02T08:28:10.884Z,1003.66
2022-08-02T08:29:15.294Z,1003.67
2022-08-02T08:30:19.785Z,1003.66
2022-08-02T08:31:24.171Z,1003.57
2022-08-02T08:32:29.364Z,1003.61
2022-08-02T08:33:33.735Z,1003.63
2022-08-02T08:34:38.147Z,1003.57
2022-08-02T08:35:42.535Z,1003.58
2022-08-02T08:36:46.920Z,1003.59
2022-08-02T08:37:51.297Z,1003.55
2022-08-02T08:38:55.667Z,1003.53
2022-08-02T08:40:00.096Z,1003.56
2022-08-02T08:41:04.466Z,1003.52
2022-08-02T08:42:09.389Z,1003.53
2022-08-02T08:43:13.237Z,1003.52
2022-08-02T08:44:17.617Z,1003.52
2022-08-02T08:45:22.027Z,1003.52
2022-08-02T08:46:26.401Z,1003.48
2022-08-02T08:47:33.306Z,1003.45
2022-08-02T08:48:35.228Z,1003.43
2022-08-02T08:49:39.579Z,1003.44
2022-08-02T08:50:43.948Z,1003.40
2022-08-02T08:51:48.334Z,1003.37
2022-08-02T08:52:52.718Z,1003.39
2022-08-02T08:53:57.099Z,1003.45
2022-08-02T08:55:01.517Z,1003.43
2022-08-02T08:56:05.888Z,1003.48
2022-08-02T08:57:10.266Z,1003.52
2022-08-02T08:58:14.648Z,1003.52
2022-08-02T08:59:19.050Z,1003.45
2022-08-02T09:00:23.429Z,1003.49
2022-08-02T09:01:27.833Z,1003.39
2022-08-02T09:02:32.270Z,1003.43
2022-08-02T09:03:36.568Z,1003.44
2022-08-02T09:04:40.971Z,1003.45
2022-08-02T09:05:45.341Z,1003.42
2022-08-02T09:06:49.731Z,1003.41
2022-08-02T09:07:54.090Z,1003.44
2022-08-02T09:08:58.471Z,1003.48
2022-08-02T09:10:02.930Z,1003.45
2022-08-02T09:11:07.312Z,1003.48
2022-08-02T09:12:11.861Z,1003.48
2022-08-02T09:13:38.534Z,1003.43
2022-08-02T09:14:20.482Z,1003.43
2022-08-02T09:15:24.862Z,1003.43
2022-08-02T09:16:29.243Z,1003.38
2022-08-02T09:17:33.632Z,1003.38
2022-08-02T09:18:38.013Z,1003.41
2022-08-02T09:19:45.648Z,1003.45
2022-08-02T09:20:46.821Z,1003.39
2022-08-02T09:21:51.203Z,1003.39
2022-08-02T09:22:55.576Z,1003.38
2022-08-02T09:23:59.964Z,1003.38
2022-08-02T09:25:04.375Z,1003.35
2022-08-02T09:26:08.765Z,1003.36
2022-08-02T09:27:13.143Z,1003.36
2022-08-02T09:28:17.525Z,1003.35
2022-08-02T09:29:21.943Z,1003.38
2022-08-02T09:30:26.323Z,1003.39
2022-08-02T09:31:30.703Z,1003.40
2022-08-02T09:32:35.083Z,1003.35
2022-08-02T09:33:39.465Z,1003.35
2022-08-02T09:34:43.872Z,1003.32
2022-08-02T09:36:07.235Z,1003.36
2022-08-02T09:36:54.400Z,1003.38
2022-08-02T09:37:57.015Z,1003.40
2022-08-02T09:39:01.436Z,1003.37
2022-08-02T09:40:05.805Z,1003.34
2022-08-02T09:41:10.206Z,1003.35
2022-08-02T09:42:14.888Z,1003.38
2022-08-02T09:43:18.974Z,1003.36
2022-08-02T09:44:23.356Z,1003.32
2022-08-02T09:45:27.768Z,1003.32
2022-08-02T09:46:32.155Z,1003.36
2022-08-02T09:47:37.537Z,1003.34
2022-08-02T09:48:40.949Z,1003.27
2022-08-02T09:49:45.373Z,1003.34
2022-08-02T09:50:49.710Z,1003.29
2022-08-02T09:51:54.098Z,1003.24
2022-08-02T09:52:58.478Z,1003.24
2022-08-02T09:54:10.043Z,1003.21
2022-08-02T09:55:07.258Z,1003.24
2022-08-02T09:56:35.150Z,1003.25
2022-08-02T09:57:15.999Z,1003.29
2022-08-02T09:58:20.400Z,1003.26
2022-08-02T09:59:24.777Z,1003.28
2022-08-02T10:00:50.789Z,1003.30
2022-08-02T10:01:37.661Z,1003.28
2022-08-02T10:02:37.972Z,1003.27
2022-08-02T10:03:42.300Z,1003.25
2022-08-02T10:04:52.033Z,1003.18
2022-08-02T10:05:54.000Z,1003.24
2022-08-02T10:06:55.468Z,1003.24
2022-08-02T10:07:59.849Z,1003.21
2022-08-02T10:09:04.220Z,1003.21
2022-08-02T10:10:08.620Z,1003.17
2022-08-02T10:11:13.000Z,1003.21
2022-08-02T10:12:17.380Z,1003.16
2022-08-02T10:13:22.211Z,1003.22
2022-08-02T10:14:26.151Z,1003.21
2022-08-02T10:15:30.562Z,1003.19
2022-08-02T10:16:34.940Z,1003.16
2022-08-02T10:17:39.311Z,1003.18
2022-08-02T10:18:43.701Z,1003.13
2022-08-02T10:20:01.121Z,1003.16
2022-08-02T10:20:52.504Z,1003.14
2022-08-02T10:21:56.892Z,1003.15
2022-08-02T10:23:01.272Z,1003.13
2022-08-02T10:24:05.655Z,1003.10
2022-08-02T10:25:10.219Z,1003.10
2022-08-02T10:26:14.433Z,1003.19
2022-08-02T10:27:18.832Z,1003.16
2022-08-02T10:28:23.212Z,1003.04
2022-08-02T10:29:27.591Z,1003.05
2022-08-02T10:30:31.993Z,1003.03
2022-08-02T10:31:36.363Z,1003.03
2022-08-02T10:32:40.742Z,1003.10
2022-08-02T10:33:49.881Z,1003.06
2022-08-02T10:34:51.278Z,1003.08
2022-08-02T10:36:04.586Z,1002.98
2022-08-02T10:36:58.283Z,1002.92
2022-08-02T10:38:02.663Z,1002.93
2022-08-02T10:39:07.046Z,1003.01
2022-08-02T10:40:11.447Z,1003.00
2022-08-02T10:41:15.826Z,1002.96
2022-08-02T10:42:20.195Z,1002.93
2022-08-02T10:43:24.567Z,1002.96
2022-08-02T10:44:28.945Z,1003.01
2022-08-02T10:45:33.335Z,1002.98
2022-08-02T10:46:37.705Z,1003.03
2022-08-02T10:47:42.082Z,1002.95
2022-08-02T10:48:46.454Z,1002.96
2022-08-02T10:49:50.885Z,1002.94
2022-08-02T10:50:55.236Z,1003.02
2022-08-02T10:51:59.605Z,1003.01
2022-08-02T10:53:03.984Z,1002.92
2022-08-02T10:54:08.485Z,1003.08
2022-08-02T10:55:14.561Z,1002.92
2022-08-02T10:56:17.328Z,1002.90
2022-08-02T10:57:21.699Z,1002.91
2022-08-02T10:58:29.646Z,1002.89
2022-08-02T10:59:30.459Z,1002.93
2022-08-02T11:00:34.875Z,1002.87
2022-08-02T11:01:40.181Z,1002.87
2022-08-02T11:02:43.607Z,1002.85
2022-08-02T11:03:47.987Z,1002.80
2022-08-02T11:04:52.357Z,1002.82
2022-08-02T11:05:56.750Z,1002.82
2022-08-02T11:07:01.120Z,1002.82
2022-08-02T11:08:05.498Z,1002.78
2022-08-02T11:09:09.878Z,1002.77
2022-08-02T11:10:14.239Z,1002.84
2022-08-02T11:11:18.779Z,1002.80
2022-08-02T11:12:23.027Z,1002.83
2022-08-02T11:13:27.400Z,1002.84
2022-08-02T11:14:31.817Z,1002.83
2022-08-02T11:15:36.213Z,1002.82
2022-08-02T11:16:40.594Z,1002.76
2022-08-02T11:17:44.969Z,1002.81
2022-08-02T11:18:49.341Z,1002.84
2022-08-02T11:19:53.710Z,1002.79
2022-08-02T11:20:58.117Z,1002.65
2022-08-02T11:22:02.502Z,1002.69
2022-08-02T11:23:06.872Z,1002.72
2022-08-02T11:24:11.250Z,1002.80
2022-08-02T11:25:15.630Z,1002.63
2022-08-02T11:26:20.033Z,1002.75
2022-08-02T11:27:24.402Z,1002.72
2022-08-02T11:28:28.773Z,1002.63
2022-08-02T11:29:33.144Z,1002.60
2022-08-02T11:30:37.550Z,1002.61
2022-08-02T11:31:41.931Z,1002.61
2022-08-02T11:32:46.301Z,1002.60
2022-08-02T11:33:50.663Z,1002.67
2022-08-02T11:34:55.052Z,1002.70
2022-08-02T11:35:59.443Z,1002.70
2022-08-02T11:37:03.813Z,1002.67
2022-08-02T11:38:08.276Z,1002.60
2022-08-02T11:39:12.603Z,1002.78
2022-08-02T11:40:19.810Z,1002.77
2022-08-02T11:41:46.744Z,1002.63
2022-08-02T11:42:25.761Z,1002.72
2022-08-02T11:43:30.135Z,1002.70
2022-08-02T11:44:34.504Z,1002.59
2022-08-02T11:45:38.907Z,1002.58
2022-08-02T11:46:43.278Z,1002.63
2022-08-02T11:47:47.644Z,1002.59
2022-08-02T11:48:52.185Z,1002.64
2022-08-02T11:49:56.400Z,1002.61
2022-08-02T11:51:00.826Z,1002.49
2022-08-02T11:52:05.258Z,1002.58
2022-08-02T11:53:09.565Z,1002.60
2022-08-02T11:54:13.946Z,1002.61
2022-08-02T11:55:18.325Z,1002.56
2022-08-02T11:56:25.116Z,1002.60
2022-08-02T11:57:27.096Z,1002.63
2022-08-02T11:58:31.492Z,1002.54
2022-08-02T11:59:35.847Z,1002.56
2022-08-02T12:00:40.220Z,1002.57
2022-08-02T12:01:45.529Z,1002.64
2022-08-02T12:02:49.020Z,1002.61
2022-08-02T12:03:53.337Z,1002.66
2022-08-02T12:04:58.343Z,1002.65
2022-08-02T12:06:06.536Z,1002.65
2022-08-02T12:07:06.450Z,1002.59
2022-08-02T12:08:10.807Z,1002.60
2022-08-02T12:09:18.177Z,1002.60
2022-08-02T12:10:19.664Z,1002.63
2022-08-02T12:11:23.919Z,1002.51
2022-08-02T12:12:28.279Z,1002.57
2022-08-02T12:13:32.652Z,1002.49
2022-08-02T12:14:37.010Z,1002.46
2022-08-02T12:15:41.372Z,1002.46
2022-08-02T12:16:45.760Z,1002.57
2022-08-02T12:17:50.134Z,1002.48
2022-08-02T12:18:54.505Z,1002.58
2022-08-02T12:19:58.875Z,1002.49
2022-08-02T12:21:03.252Z,1002.50
2022-08-02T12:22:07.610Z,1002.50
2022-08-02T12:23:11.975Z,1002.49
2022-08-02T12:24:16.331Z,1002.45
2022-08-02T12:25:34.143Z,1002.45
2022-08-02T12:26:25.190Z,1002.42
2022-08-02T12:27:29.552Z,1002.50
2022-08-02T12:28:33.934Z,1002.53
2022-08-02T12:29:58.919Z,1002.52
2022-08-02T12:30:42.652Z,1002.50
2022-08-02T12:31:57.366Z,1002.50
2022-08-02T12:32:51.404Z,1002.48
2022-08-02T12:33:55.762Z,1002.44
2022-08-02T12:35:00.123Z,1002.47
2022-08-02T12:36:04.513Z,1002.43
2022-08-02T12:37:08.892Z,1002.43
2022-08-02T12:38:13.253Z,1002.41
2022-08-02T12:39:17.635Z,1002.41
2022-08-02T12:40:25.154Z,1002.42
2022-08-02T12:41:31.935Z,1002.34
2022-08-02T12:42:30.763Z,1002.46
2022-08-02T12:43:35.148Z,1002.35
2022-08-02T12:44:39.494Z,1002.34
2022-08-02T12:45:47.104Z,1002.43
2022-08-02T12:46:48.246Z,1002.45
2022-08-02T12:47:52.616Z,1002.35
2022-08-02T12:49:16.496Z,1002.31
2022-08-02T12:50:01.386Z,1002.38
2022-08-02T12:51:05.731Z,1002.39
2022-08-02T12:52:10.085Z,1002.40
2022-08-02T12:53:14.462Z,1002.34
2022-08-02T12:54:18.814Z,1002.34
2022-08-02T12:55:24.212Z,1002.33
2022-08-02T12:56:27.548Z,1002.40
2022-08-02T12:57:31.908Z,1002.26
2022-08-02T12:58:36.268Z,1002.31
2022-08-02T12:59:40.630Z,1002.23
2022-08-02T13:00:44.978Z,1002.23
2022-08-02T13:01:49.403Z,1002.25
2022-08-02T13:02:53.720Z,1002.23
2022-08-02T13:04:09.810Z,1002.24
2022-08-02T13:05:02.893Z,1002.25
2022-08-02T13:06:23.051Z,1002.19
2022-08-02T13:07:11.147Z,1002.20
2022-08-02T13:08:15.497Z,1002.27
2022-08-02T13:09:19.857Z,1002.28
2022-08-02T13:10:24.208Z,1002.36
2022-08-02T13:11:28.585Z,1002.23
2022-08-02T13:12:32.929Z,1002.15
2022-08-02T13:13:37.270Z,1002.25
2022-08-02T13:14:42.200Z,1002.29